Погода Лашукина 2 недели

Витебская область, Белоруссия

24 мая-06 июня
  • 24мая
    Сегодня
    +11°
    +25°
    Ясно и безоблачно
    ВремяПогодаТемператураВлажностьДавлениеВетер, м/сВероятность осадков
    00:00Практически безоблачно+16°C78 %755 мм1.6 м/с2 %
    03:00Ясно и безоблачно+15°C63 %756 мм1.6 м/с2 %
    06:00Практически безоблачно+13°C67 %757 мм1.6 м/с2 %
    09:00Ясно и безоблачно+18°C64 %757 мм2.5 м/с2 %
    12:00Ясно и безоблачно+23°C52 %758 мм3.5 м/с2 %
    15:00Ясно и безоблачно+25°C45 %757 мм3.5 м/с2 %
    18:00Ясно и безоблачно+24°C46 %756 мм3.1 м/с2 %
    21:00Ясно и безоблачно+20°C62 %757 мм2.2 м/с2 %
  • 25мая
    Суббота
    +11°
    +26°
    Практически безоблачно
    ВремяПогодаТемператураВлажностьДавлениеВетер, м/сВероятность осадков
    00:00Ясно и безоблачно+16°C62 %757 мм1.7 м/с2 %
    03:00Ясно и безоблачно+13°C68 %757 мм1.2 м/с2 %
    06:00Ясно и безоблачно+12°C69 %757 мм1.3 м/с2 %
    09:00Ясно и безоблачно+19°C62 %757 мм1.8 м/с2 %
    12:00Ясно и безоблачно+24°C51 %757 мм2.9 м/с2 %
    15:00Практически безоблачно+26°C41 %756 мм2.8 м/с2 %
    18:00Небольшая облачность+24°C45 %755 мм2.5 м/с9 %
    21:00Облачно с прояснениями+20°C67 %755 мм1.4 м/с7 %
  • 26мая
    Воскресенье
    +10°
    +26°
    Облачно с прояснениями
    ВремяПогодаТемператураВлажностьДавлениеВетер, м/сВероятность осадков
    00:00Ясно и безоблачно+15°C84 %755 мм1.0 м/с1 %
    03:00Практически безоблачно+12°C92 %755 мм0.7 м/с1 %
    06:00Ясно и безоблачно+13°C83 %755 мм0.6 м/с1 %
    09:00Ясно и безоблачно+19°C62 %756 мм1.0 м/с2 %
    12:00Ясно и безоблачно+25°C40 %756 мм2.1 м/с2 %
    15:00Облачно с прояснениями+26°C37 %756 мм2.0 м/с2 %
    18:00Практически безоблачно+25°C38 %755 мм1.8 м/с2 %
    21:00Практически безоблачно+22°C56 %755 мм1.0 м/с2 %
  • 27мая
    Понедельник
    +13°
    +27°
    Ясно и безоблачно
    ВремяПогодаТемператураВлажностьДавлениеВетер, м/сВероятность осадков
    00:00Ясно и безоблачно+15°C77 %755 мм0.9 м/с2 %
    03:00Ясно и безоблачно+12°C83 %755 мм0.4 м/с2 %
    06:00Ясно и безоблачно+14°C78 %756 мм0.7 м/с2 %
    09:00Ясно и безоблачно+19°C62 %756 мм1.0 м/с2 %
    12:00Ясно и безоблачно+24°C38 %756 мм2.5 м/с2 %
    15:00Ясно и безоблачно+27°C38 %755 мм2.4 м/с2 %
    18:00Практически безоблачно+26°C40 %754 мм2.3 м/с18 %
    21:00Ясно и безоблачно+22°C68 %754 мм0.9 м/с6 %
  • 28мая
    Вторник
    +14°
    +26°
    Практически безоблачно
    ВремяПогодаТемператураВлажностьДавлениеВетер, м/сВероятность осадков
    00:00Ясно и безоблачно+17°C77 %754 мм0.7 м/с2 %
    03:00Ясно и безоблачно+16°C81 %754 мм0.6 м/с2 %
    06:00Ясно и безоблачно+14°C88 %754 мм0.6 м/с2 %
    09:00Ясно и безоблачно+21°C68 %754 мм1.2 м/с2 %
    12:00Практически безоблачно+25°C44 %754 мм2.7 м/с8 %
    15:00Практически безоблачно+27°C42 %753 мм2.1 м/с21 %
    18:00Практически безоблачно+26°C44 %753 мм1.9 м/с28 %
    21:00Ясно и безоблачно+22°C67 %752 мм1.3 м/с12 %
Мы используем cookies
Соглашаюсь